createdAt,value
2022-12-11T00:01:39.774Z,48.80
2022-12-11T00:04:28.529Z,48.35
2022-12-11T00:10:06.714Z,47.41
2022-12-11T00:12:55.295Z,47.11
2022-12-11T00:15:45.271Z,46.62
2022-12-11T00:18:33.929Z,46.80
2022-12-11T00:21:22.793Z,46.20
2022-12-11T00:24:11.494Z,46.05
2022-12-11T00:27:00.180Z,46.32
2022-12-11T00:29:48.720Z,46.94
2022-12-11T00:32:38.744Z,47.81
2022-12-11T00:35:27.433Z,48.15
2022-12-11T00:38:16.987Z,48.51
2022-12-11T00:41:06.042Z,48.38
2022-12-11T00:43:54.764Z,48.76
2022-12-11T00:46:43.328Z,48.65
2022-12-11T00:49:33.325Z,48.78
2022-12-11T00:52:21.994Z,49.12
2022-12-11T00:55:11.421Z,49.10
2022-12-11T00:58:00.882Z,49.12
2022-12-11T01:00:49.939Z,49.22
2022-12-11T01:03:38.768Z,49.37
2022-12-11T01:06:29.660Z,49.42
2022-12-11T01:09:35.738Z,49.49
2022-12-11T01:12:24.724Z,49.54
2022-12-11T01:15:13.596Z,49.13
2022-12-11T01:18:02.220Z,49.22
2022-12-11T01:20:50.976Z,49.23
2022-12-11T01:23:41.701Z,49.44
2022-12-11T01:26:30.766Z,49.51
2022-12-11T01:29:19.470Z,49.83
2022-12-11T01:32:08.039Z,49.66
2022-12-11T01:34:56.734Z,49.35
2022-12-11T01:37:45.904Z,49.68
2022-12-11T01:40:35.947Z,49.46
2022-12-11T01:43:24.506Z,49.72
2022-12-11T01:46:13.112Z,49.97
2022-12-11T01:49:02.747Z,49.64
2022-12-11T01:51:52.984Z,49.39
2022-12-11T01:54:41.608Z,49.69
2022-12-11T01:57:31.706Z,49.59
2022-12-11T02:00:21.252Z,49.90
2022-12-11T02:03:10.043Z,49.70
2022-12-11T02:06:01.173Z,49.95
2022-12-11T02:08:49.799Z,49.77
2022-12-11T02:11:49.048Z,49.89
2022-12-11T02:14:43.079Z,49.58
2022-12-11T02:17:35.992Z,50.16
2022-12-11T02:20:28.072Z,49.97
2022-12-11T02:23:37.793Z,50.05
2022-12-11T02:26:36.552Z,50.04
2022-12-11T02:29:31.316Z,50.05
2022-12-11T02:32:23.351Z,50.23
2022-12-11T02:35:15.363Z,50.05
2022-12-11T02:38:07.615Z,49.76
2022-12-11T02:40:57.808Z,50.11
2022-12-11T02:43:46.800Z,49.87
2022-12-11T02:46:37.735Z,49.90
2022-12-11T02:49:26.658Z,50.23
2022-12-11T02:52:16.582Z,49.84
2022-12-11T02:55:07.208Z,50.31
2022-12-11T02:57:58.825Z,50.33
2022-12-11T03:00:47.983Z,50.14
2022-12-11T03:03:37.998Z,50.39
2022-12-11T03:06:33.794Z,50.11
2022-12-11T03:09:23.664Z,50.02
2022-12-11T03:12:14.469Z,50.18
2022-12-11T03:15:06.486Z,50.30
2022-12-11T03:18:02.885Z,50.28
2022-12-11T03:20:58.192Z,50.32
2022-12-11T03:23:51.353Z,50.08
2022-12-11T03:26:42.268Z,49.98
2022-12-11T03:29:33.841Z,50.25
2022-12-11T03:32:24.790Z,50.37
2022-12-11T03:35:15.865Z,50.25
2022-12-11T03:38:08.885Z,50.12
2022-12-11T03:41:01.003Z,50.04
2022-12-11T03:43:50.354Z,50.28
2022-12-11T03:46:40.896Z,50.29
2022-12-11T03:49:31.827Z,50.19
2022-12-11T03:52:21.174Z,50.08
2022-12-11T03:55:11.787Z,49.96
2022-12-11T03:58:00.679Z,50.37
2022-12-11T04:00:49.325Z,50.14
2022-12-11T04:03:38.018Z,50.17
2022-12-11T04:06:26.627Z,50.39
2022-12-11T04:09:15.207Z,50.15
2022-12-11T04:12:05.228Z,50.10
2022-12-11T04:15:03.131Z,50.17
2022-12-11T04:18:11.639Z,50.14
2022-12-11T04:21:18.036Z,50.54
2022-12-11T04:24:16.276Z,50.43
2022-12-11T04:27:06.245Z,50.57
2022-12-11T04:29:54.817Z,50.55
2022-12-11T04:32:43.410Z,50.27
2022-12-11T04:35:32.089Z,50.39
2022-12-11T04:38:20.681Z,50.15
2022-12-11T04:41:11.079Z,50.37
2022-12-11T04:44:01.087Z,50.41
2022-12-11T04:46:49.753Z,50.26
2022-12-11T04:49:38.451Z,50.55
2022-12-11T04:52:27.105Z,50.44
2022-12-11T04:55:15.682Z,50.42
2022-12-11T04:58:04.366Z,50.34
2022-12-11T05:00:54.710Z,50.37
2022-12-11T05:03:44.414Z,50.22
2022-12-11T05:06:32.982Z,50.38
2022-12-11T05:09:21.887Z,50.11
2022-12-11T05:12:10.498Z,50.33
2022-12-11T05:14:59.197Z,50.20
2022-12-11T05:17:49.282Z,50.26
2022-12-11T05:20:37.901Z,50.28
2022-12-11T05:23:26.839Z,50.43
2022-12-11T05:26:17.676Z,50.30
2022-12-11T05:29:06.368Z,50.12
2022-12-11T05:31:54.926Z,50.57
2022-12-11T05:34:44.959Z,50.46
2022-12-11T05:37:35.343Z,50.27
2022-12-11T05:40:23.963Z,50.38
2022-12-11T05:43:12.554Z,50.60
2022-12-11T05:46:07.689Z,50.52
2022-12-11T05:48:57.654Z,50.32
2022-12-11T05:51:47.611Z,50.24
2022-12-11T05:54:36.240Z,50.25
2022-12-11T05:57:24.797Z,50.22
2022-12-11T06:00:14.633Z,50.55
2022-12-11T06:03:03.446Z,50.44
2022-12-11T06:05:52.179Z,50.50
2022-12-11T06:08:42.234Z,50.54
2022-12-11T06:11:34.452Z,50.33
2022-12-11T06:14:23.040Z,50.32
2022-12-11T06:17:11.599Z,50.32
2022-12-11T06:20:00.209Z,50.01
2022-12-11T06:22:49.221Z,50.16
2022-12-11T06:25:40.145Z,50.15
2022-12-11T06:28:28.755Z,50.14
2022-12-11T06:31:18.088Z,50.13
2022-12-11T06:34:06.960Z,49.85
2022-12-11T06:36:55.572Z,50.23
2022-12-11T06:39:44.248Z,50.18
2022-12-11T06:42:34.480Z,50.02
2022-12-11T06:45:23.099Z,49.87
2022-12-11T06:48:11.821Z,50.27
2022-12-11T06:51:00.359Z,50.29
2022-12-11T06:53:53.291Z,50.03
2022-12-11T06:56:41.972Z,50.29
2022-12-11T06:59:32.007Z,50.09
2022-12-11T07:02:21.652Z,50.01
2022-12-11T07:05:11.047Z,50.13
2022-12-11T07:08:00.005Z,50.15
2022-12-11T07:10:48.719Z,50.21
2022-12-11T07:13:37.545Z,50.07
2022-12-11T07:16:27.615Z,50.23
2022-12-11T07:19:16.312Z,50.31
2022-12-11T07:22:04.980Z,50.30
2022-12-11T07:24:56.796Z,50.23
2022-12-11T07:27:45.553Z,50.17
2022-12-11T07:30:34.105Z,50.19
2022-12-11T07:33:24.204Z,49.98
2022-12-11T07:36:14.156Z,50.09
2022-12-11T07:39:03.177Z,50.15
2022-12-11T07:41:51.824Z,49.93
2022-12-11T07:44:40.479Z,50.10
2022-12-11T07:47:29.069Z,50.29
2022-12-11T07:50:19.189Z,50.30
2022-12-11T07:53:07.856Z,50.16
2022-12-11T07:55:56.531Z,50.23
2022-12-11T07:58:45.424Z,50.31
2022-12-11T08:01:36.711Z,50.09
2022-12-11T08:04:25.398Z,50.24
2022-12-11T08:07:15.533Z,50.39
2022-12-11T08:10:04.350Z,50.32
2022-12-11T08:12:53.011Z,50.23
2022-12-11T08:15:41.733Z,49.94
2022-12-11T08:18:30.407Z,50.31
2022-12-11T08:21:24.604Z,50.31
2022-12-11T08:24:16.320Z,50.23
2022-12-11T08:27:05.483Z,50.19
2022-12-11T08:29:54.119Z,49.91
2022-12-11T08:32:42.734Z,50.07
2022-12-11T08:35:31.382Z,50.08
2022-12-11T08:38:25.144Z,49.83
2022-12-11T08:41:17.092Z,49.91
2022-12-11T08:44:07.678Z,49.91
2022-12-11T08:46:57.889Z,49.97
2022-12-11T08:49:46.611Z,49.78
2022-12-11T08:52:36.156Z,50.13
2022-12-11T08:55:24.729Z,49.85
2022-12-11T08:58:14.767Z,49.98
2022-12-11T09:01:08.059Z,50.29
2022-12-11T09:03:58.043Z,50.09
2022-12-11T09:06:46.614Z,49.79
2022-12-11T09:09:35.299Z,50.05
2022-12-11T09:12:24.036Z,49.89
2022-12-11T09:15:14.460Z,49.78
2022-12-11T09:18:03.190Z,49.92
2022-12-11T09:20:59.966Z,49.83
2022-12-11T09:23:48.992Z,49.89
2022-12-11T09:26:37.715Z,49.81
2022-12-11T09:29:26.371Z,49.70
2022-12-11T09:32:16.409Z,49.77
2022-12-11T09:35:05.467Z,49.88
2022-12-11T09:37:54.259Z,50.00
2022-12-11T09:40:43.932Z,49.92
2022-12-11T09:43:40.443Z,50.15
2022-12-11T09:46:33.972Z,50.06
2022-12-11T09:49:29.315Z,49.84
2022-12-11T09:52:20.661Z,50.03
2022-12-11T09:55:14.988Z,49.82
2022-12-11T09:58:07.172Z,50.02
2022-12-11T10:01:00.997Z,49.97
2022-12-11T10:04:08.005Z,50.04
2022-12-11T10:07:04.251Z,49.79
2022-12-11T10:09:59.525Z,49.71
2022-12-11T10:12:52.721Z,49.68
2022-12-11T10:15:43.727Z,49.68
2022-12-11T10:18:32.903Z,49.92
2022-12-11T10:21:21.715Z,49.75
2022-12-11T10:24:41.876Z,49.77
2022-12-11T10:27:32.127Z,49.02
2022-12-11T10:30:23.494Z,48.72
2022-12-11T10:33:20.187Z,48.20
2022-12-11T10:36:10.082Z,47.49
2022-12-11T10:38:58.963Z,47.46
2022-12-11T10:41:50.168Z,46.87
2022-12-11T10:44:38.749Z,45.49
2022-12-11T10:47:27.409Z,44.51
2022-12-11T10:50:26.578Z,44.37
2022-12-11T10:53:22.340Z,43.88
2022-12-11T10:56:11.046Z,43.53
2022-12-11T10:59:02.433Z,43.67
2022-12-11T11:01:51.349Z,43.05
2022-12-11T11:04:44.751Z,43.05
2022-12-11T11:07:34.343Z,42.27
2022-12-11T11:10:23.047Z,42.53
2022-12-11T11:13:15.465Z,42.23
2022-12-11T11:16:07.476Z,42.00
2022-12-11T11:18:57.304Z,41.60
2022-12-11T11:21:51.008Z,41.53
2022-12-11T11:24:42.199Z,41.64
2022-12-11T11:27:32.738Z,41.56
2022-12-11T11:30:23.911Z,41.46
2022-12-11T11:33:16.195Z,41.74
2022-12-11T11:36:06.764Z,42.90
2022-12-11T11:39:06.178Z,42.65
2022-12-11T11:41:59.054Z,42.90
2022-12-11T11:44:52.815Z,43.71
2022-12-11T11:47:46.728Z,44.77
2022-12-11T11:50:37.587Z,45.26
2022-12-11T11:53:30.683Z,45.44
2022-12-11T11:56:22.857Z,46.08
2022-12-11T11:59:15.894Z,46.09
2022-12-11T12:02:15.266Z,46.34
2022-12-11T12:05:04.031Z,46.68
2022-12-11T12:08:02.265Z,46.78
2022-12-11T12:10:53.980Z,46.77
2022-12-11T12:13:49.847Z,47.12
2022-12-11T12:16:52.739Z,47.20
2022-12-11T12:19:50.593Z,47.26
2022-12-11T12:22:55.557Z,47.09
2022-12-11T12:25:47.260Z,47.09
2022-12-11T12:28:42.874Z,47.11
2022-12-11T12:31:46.225Z,47.34
2022-12-11T12:34:51.052Z,48.03
2022-12-11T12:37:49.285Z,47.90
2022-12-11T12:40:43.255Z,46.98
2022-12-11T12:43:49.456Z,46.33
2022-12-11T12:46:48.478Z,46.35
2022-12-11T12:49:40.534Z,46.22
2022-12-11T12:52:33.493Z,45.91
2022-12-11T12:55:24.394Z,45.99
2022-12-11T12:58:27.699Z,45.75
2022-12-11T13:01:19.355Z,45.32
2022-12-11T13:04:26.269Z,45.15
2022-12-11T13:07:23.308Z,45.47
2022-12-11T13:10:26.166Z,45.50
2022-12-11T13:13:35.599Z,45.45
2022-12-11T13:16:28.738Z,45.32
2022-12-11T13:19:29.376Z,45.42
2022-12-11T13:22:25.121Z,45.39
2022-12-11T13:25:22.535Z,45.61
2022-12-11T13:28:24.094Z,45.40
2022-12-11T13:31:34.262Z,45.56
2022-12-11T13:34:24.650Z,46.24
2022-12-11T13:37:25.795Z,43.41
2022-12-11T13:40:19.080Z,43.75
2022-12-11T13:43:11.211Z,44.03
2022-12-11T13:46:01.775Z,44.90
2022-12-11T13:48:55.399Z,46.25
2022-12-11T13:51:53.745Z,46.62
2022-12-11T13:54:49.355Z,46.93
2022-12-11T13:57:47.104Z,47.33
2022-12-11T14:00:35.713Z,47.64
2022-12-11T14:03:24.904Z,47.55
2022-12-11T14:06:18.761Z,47.90
2022-12-11T14:09:09.020Z,47.42
2022-12-11T14:11:59.258Z,47.52
2022-12-11T14:14:51.002Z,47.51
2022-12-11T14:17:41.545Z,47.75
2022-12-11T14:20:32.037Z,47.62
2022-12-11T14:23:24.209Z,48.18
2022-12-11T14:26:23.448Z,47.85
2022-12-11T14:29:26.056Z,47.99
2022-12-11T14:32:20.164Z,47.83
2022-12-11T14:35:18.773Z,48.19
2022-12-11T14:38:10.004Z,48.38
2022-12-11T14:41:02.748Z,48.17
2022-12-11T14:43:53.807Z,48.29
2022-12-11T14:46:46.441Z,48.42
2022-12-11T14:49:41.407Z,48.58
2022-12-11T14:52:33.435Z,48.83
2022-12-11T14:55:24.724Z,48.48
2022-12-11T14:58:19.573Z,49.02
2022-12-11T15:01:21.586Z,48.51
2022-12-11T15:04:22.304Z,48.94
2022-12-11T15:07:21.666Z,49.21
2022-12-11T15:10:23.617Z,49.28
2022-12-11T15:13:16.670Z,49.18
2022-12-11T15:16:08.407Z,49.10
2022-12-11T15:18:58.787Z,49.22
2022-12-11T15:21:47.746Z,49.10
2022-12-11T15:24:40.657Z,48.96
2022-12-11T15:27:34.274Z,49.03
2022-12-11T15:30:31.569Z,49.33
2022-12-11T15:33:23.016Z,49.16
2022-12-11T15:36:25.198Z,49.25
2022-12-11T15:39:13.818Z,49.15
2022-12-11T15:42:02.711Z,49.25
2022-12-11T15:44:51.384Z,48.90
2022-12-11T15:47:40.002Z,49.17
2022-12-11T15:50:31.270Z,49.29
2022-12-11T15:53:19.893Z,49.04
2022-12-11T15:56:11.279Z,49.16
2022-12-11T15:59:04.469Z,49.20
2022-12-11T16:01:53.127Z,49.34
2022-12-11T16:04:42.060Z,49.24
2022-12-11T16:07:32.624Z,49.38
2022-12-11T16:10:22.455Z,49.51
2022-12-11T16:13:11.220Z,49.45
2022-12-11T16:15:59.923Z,49.31
2022-12-11T16:18:48.621Z,49.52
2022-12-11T16:21:37.281Z,49.62
2022-12-11T16:24:27.510Z,49.37
2022-12-11T16:27:21.452Z,49.52
2022-12-11T16:30:12.567Z,49.57
2022-12-11T16:33:01.189Z,49.34
2022-12-11T16:35:51.212Z,49.65
2022-12-11T16:38:39.853Z,49.49
2022-12-11T16:41:29.873Z,49.19
2022-12-11T16:44:21.926Z,49.26
2022-12-11T16:47:10.555Z,49.32
2022-12-11T16:49:59.653Z,49.23
2022-12-11T16:52:48.378Z,49.36
2022-12-11T16:55:37.006Z,49.58
2022-12-11T16:58:27.055Z,49.30
2022-12-11T17:01:16.884Z,49.52
2022-12-11T17:04:05.568Z,49.48
2022-12-11T17:06:54.581Z,49.44
2022-12-11T17:09:43.298Z,49.64
2022-12-11T17:12:32.180Z,49.49
2022-12-11T17:15:22.128Z,49.40
2022-12-11T17:18:11.103Z,49.40
2022-12-11T17:21:00.129Z,49.62
2022-12-11T17:23:48.814Z,49.44
2022-12-11T17:26:37.681Z,49.59
2022-12-11T17:29:26.291Z,49.35
2022-12-11T17:32:16.729Z,49.24
2022-12-11T17:35:05.833Z,49.23
2022-12-11T17:37:54.517Z,48.97
2022-12-11T17:40:43.523Z,48.23
2022-12-11T17:43:32.091Z,48.71
2022-12-11T17:46:22.107Z,48.86
2022-12-11T17:49:12.338Z,48.64
2022-12-11T17:52:00.963Z,47.99
2022-12-11T17:54:49.608Z,48.07
2022-12-11T17:57:38.550Z,48.43
2022-12-11T18:00:32.944Z,47.71
2022-12-11T18:03:22.162Z,47.97
2022-12-11T18:06:14.387Z,48.96
2022-12-11T18:09:03.275Z,49.53
2022-12-11T18:11:51.980Z,49.40
2022-12-11T18:14:40.568Z,49.63
2022-12-11T18:17:29.159Z,49.44
2022-12-11T18:20:17.836Z,49.26
2022-12-11T18:23:08.137Z,48.83
2022-12-11T18:25:56.801Z,48.02
2022-12-11T18:28:46.535Z,47.11
2022-12-11T18:31:40.535Z,47.01
2022-12-11T18:34:30.874Z,46.32
2022-12-11T18:37:23.374Z,43.21
2022-12-11T18:40:16.887Z,44.04
2022-12-11T18:43:05.563Z,44.71
2022-12-11T18:45:54.112Z,45.01
2022-12-11T18:48:43.149Z,45.61
2022-12-11T18:51:31.838Z,45.85
2022-12-11T18:54:20.597Z,45.39
2022-12-11T18:57:11.059Z,45.66
2022-12-11T19:00:04.715Z,47.47
2022-12-11T19:02:53.329Z,47.32
2022-12-11T19:05:43.838Z,47.70
2022-12-11T19:08:33.421Z,47.40
2022-12-11T19:11:24.526Z,47.08
2022-12-11T19:14:15.386Z,47.24
2022-12-11T19:17:04.379Z,47.50
2022-12-11T19:19:53.258Z,47.63
2022-12-11T19:25:30.427Z,48.24
2022-12-11T19:28:19.013Z,48.79
2022-12-11T19:31:12.660Z,48.92
2022-12-11T19:34:02.022Z,48.85
2022-12-11T19:36:50.703Z,49.67
2022-12-11T19:39:40.071Z,49.06
2022-12-11T19:42:28.640Z,49.38
2022-12-11T19:45:17.280Z,49.70
2022-12-11T19:48:07.718Z,49.96
2022-12-11T19:50:56.286Z,49.73
2022-12-11T19:53:45.659Z,50.02
2022-12-11T19:56:35.216Z,50.41
2022-12-11T19:59:23.888Z,50.31
2022-12-11T20:02:12.650Z,50.49
2022-12-11T20:05:02.773Z,50.35
2022-12-11T20:07:51.472Z,50.43
2022-12-11T20:10:40.245Z,50.58
2022-12-11T20:13:30.256Z,50.46
2022-12-11T20:16:33.694Z,50.51
2022-12-11T20:19:28.922Z,50.82
2022-12-11T20:22:18.910Z,50.53
2022-12-11T20:25:08.545Z,50.72
2022-12-11T20:27:57.883Z,50.72
2022-12-11T20:30:46.577Z,50.69
2022-12-11T20:33:35.299Z,50.49
2022-12-11T20:36:25.211Z,49.50
2022-12-11T20:39:16.106Z,50.20
2022-12-11T20:42:05.779Z,50.42
2022-12-11T20:44:54.362Z,50.41
2022-12-11T20:47:42.982Z,49.80
2022-12-11T20:50:31.640Z,49.70
2022-12-11T20:53:20.229Z,50.15
2022-12-11T20:56:12.980Z,50.07
2022-12-11T20:59:02.050Z,49.22
2022-12-11T21:01:50.701Z,49.40
2022-12-11T21:04:41.055Z,50.10
2022-12-11T21:07:29.695Z,49.92
2022-12-11T21:10:18.416Z,49.90
2022-12-11T21:13:08.576Z,50.22
2022-12-11T21:15:57.231Z,49.98
2022-12-11T21:18:46.614Z,50.19
2022-12-11T21:21:36.745Z,49.88
2022-12-11T21:24:27.459Z,50.29
2022-12-11T21:27:16.112Z,50.14
2022-12-11T21:30:07.060Z,50.36
2022-12-11T21:32:55.732Z,50.45
2022-12-11T21:35:44.428Z,50.32
2022-12-11T21:38:33.235Z,50.24
2022-12-11T21:41:23.975Z,50.50
2022-12-11T21:47:22.980Z,50.45
2022-12-11T21:50:11.608Z,50.81
2022-12-11T21:53:01.542Z,50.26
2022-12-11T21:55:50.140Z,49.38
2022-12-11T21:58:39.428Z,48.68
2022-12-11T22:01:31.287Z,48.32
2022-12-11T22:04:21.476Z,48.10
2022-12-11T22:07:10.145Z,47.82
2022-12-11T22:09:59.020Z,47.50
2022-12-11T22:12:47.640Z,47.53
2022-12-11T22:15:36.430Z,47.27
2022-12-11T22:18:26.990Z,47.10
2022-12-11T22:21:17.462Z,47.11
2022-12-11T22:24:06.226Z,47.26
2022-12-11T22:26:54.869Z,47.46
2022-12-11T22:29:43.642Z,47.29
2022-12-11T22:32:32.296Z,47.59
2022-12-11T22:35:25.618Z,48.41
2022-12-11T22:38:17.172Z,48.78
2022-12-11T22:41:11.585Z,49.04
2022-12-11T22:44:00.775Z,49.18
2022-12-11T22:46:50.388Z,49.25
2022-12-11T22:49:39.436Z,49.47
2022-12-11T22:52:28.073Z,49.49
2022-12-11T22:55:18.066Z,49.45
2022-12-11T22:58:06.681Z,49.96
2022-12-11T23:00:55.360Z,49.82
2022-12-11T23:03:44.189Z,50.04
2022-12-11T23:06:33.019Z,49.71
2022-12-11T23:09:21.706Z,49.64
2022-12-11T23:12:11.745Z,49.83
2022-12-11T23:15:00.399Z,50.08
2022-12-11T23:17:49.100Z,50.23
2022-12-11T23:20:37.886Z,50.14
2022-12-11T23:23:26.671Z,49.88
2022-12-11T23:26:16.602Z,50.09
2022-12-11T23:29:07.109Z,50.17
2022-12-11T23:31:55.854Z,50.07
2022-12-11T23:34:44.480Z,50.26
2022-12-11T23:37:33.152Z,50.38
2022-12-11T23:40:21.871Z,49.99
2022-12-11T23:43:12.971Z,50.39
2022-12-11T23:46:03.127Z,50.52
2022-12-11T23:48:53.984Z,50.63
2022-12-11T23:51:42.698Z,50.54
2022-12-11T23:54:31.324Z,50.30
2022-12-11T23:57:19.887Z,50.14
